Time;durP1;ratioP1;P1;durP2;ratioP2;P2;SDS_P1;SDS_P2;PMS_P1;PMS_P2;Temp;Humidity;BMP_temperature;BMP_pressure;BME280_temperature;BME280_humidity;BME280_pressure;Samples;Min_cycle;Max_cycle;Signal;HPM_P1;HPM_P2
2023/10/17 00:01:00;;;;;;;0.50;0.50;;;10.00;69.20;;;;;;5139590;27;20020;-71
2023/10/17 00:03:25;;;;;;;0.50;0.50;;;10.00;69.20;;;;;;5154008;27;20018;-72
2023/10/17 00:05:54;;;;;;;0.60;0.60;;;10.10;69.20;;;;;;5146676;27;20019;-71
2023/10/17 00:08:20;;;;;;;0.50;0.50;;;10.10;69.20;;;;;;5133116;27;20118;-71
2023/10/17 00:10:46;;;;;;;0.60;0.60;;;10.20;69.10;;;;;;5138460;27;20101;-71
2023/10/17 00:15:55;;;;;;;0.70;0.70;;;10.30;69.20;;;;;;5146070;27;20464;-71
2023/10/17 00:18:25;;;;;;;0.45;0.45;;;10.30;69.20;;;;;;5143798;27;20034;-71
2023/10/17 00:20:52;;;;;;;0.50;0.50;;;10.40;69.20;;;;;;5140693;27;20039;-72
2023/10/17 00:23:20;;;;;;;6.57;1.10;;;10.40;69.10;;;;;;5153223;27;20090;-72
2023/10/17 00:25:49;;;;;;;0.40;0.40;;;10.40;69.10;;;;;;5147192;27;20011;-71
2023/10/17 00:28:15;;;;;;;0.50;0.50;;;10.40;69.10;;;;;;5133011;27;20024;-71
2023/10/17 00:30:41;;;;;;;0.50;0.50;;;10.40;69.00;;;;;;5138373;27;20472;-71
2023/10/17 00:33:10;;;;;;;0.45;0.45;;;10.50;68.90;;;;;;5151229;27;20022;-72
2023/10/17 00:35:39;;;;;;;0.93;0.88;;;10.40;68.90;;;;;;5148588;27;20024;-71
2023/10/17 00:38:07;;;;;;;0.47;0.47;;;10.50;68.90;;;;;;5143014;27;20050;-71
2023/10/17 00:40:49;;;;;;;0.40;0.40;;;10.50;68.90;;;;;;5143298;27;20471;-72
2023/10/17 00:43:15;;;;;;;0.50;0.50;;;10.50;68.90;;;;;;5151421;27;20388;-72
2023/10/17 00:45:43;;;;;;;0.40;0.40;;;10.50;68.80;;;;;;5147742;27;20030;-71
2023/10/17 00:48:17;;;;;;;0.40;0.40;;;10.50;68.70;;;;;;5132766;28;20530;-71
2023/10/17 00:50:48;;;;;;;0.40;0.40;;;10.50;68.70;;;;;;5138250;27;20131;-71
2023/10/17 00:53:14;;;;;;;0.55;0.55;;;10.40;68.70;;;;;;5151268;27;20027;-71
2023/10/17 00:55:49;;;;;;;0.50;0.50;;;10.50;68.70;;;;;;5147961;27;20023;-71
2023/10/17 00:58:15;;;;;;;0.40;0.40;;;10.50;68.60;;;;;;5132880;27;20039;-71
2023/10/17 01:00:45;;;;;;;0.50;0.50;;;10.40;68.50;;;;;;5138426;27;20031;-71
2023/10/17 01:03:10;;;;;;;0.60;0.60;;;10.40;68.50;;;;;;5150193;27;20056;-71
2023/10/17 01:06:10;;;;;;;0.50;0.50;;;10.40;68.50;;;;;;5149203;27;20011;-72
2023/10/17 01:08:46;;;;;;;0.80;0.80;;;10.40;68.50;;;;;;5132657;27;20050;-71
2023/10/17 01:11:20;;;;;;;0.50;0.50;;;10.40;68.50;;;;;;5139081;27;20023;-71
2023/10/17 01:13:52;;;;;;;0.50;0.50;;;10.30;68.60;;;;;;5152421;27;20109;-71
2023/10/17 01:16:22;;;;;;;0.50;0.50;;;10.30;68.70;;;;;;5142349;27;20524;-71
2023/10/17 01:18:47;;;;;;;0.70;0.70;;;10.40;68.70;;;;;;5146193;27;20106;-71
2023/10/17 01:21:20;;;;;;;0.47;0.47;;;10.30;68.60;;;;;;5138857;27;20119;-71
2023/10/17 01:23:50;;;;;;;0.50;0.50;;;10.40;68.70;;;;;;5153146;27;20046;-72
2023/10/17 01:26:23;;;;;;;0.40;0.40;;;10.30;68.50;;;;;;5142446;27;20023;-71
2023/10/17 01:28:50;;;;;;;0.55;0.55;;;10.30;68.40;;;;;;5131424;27;20106;-72
2023/10/17 01:31:16;;;;;;;0.50;0.50;;;10.30;68.30;;;;;;5138899;27;20063;-72
2023/10/17 01:33:46;;;;;;;0.50;0.50;;;10.30;68.20;;;;;;5152675;27;20060;-72
2023/10/17 01:36:13;;;;;;;0.50;0.50;;;10.30;68.10;;;;;;5143014;27;20027;-72
2023/10/17 01:38:41;;;;;;;0.52;0.52;;;10.20;68.10;;;;;;5146994;27;20022;-72
2023/10/17 01:41:08;;;;;;;0.50;0.50;;;10.20;68.20;;;;;;5137746;27;20023;-72
2023/10/17 01:43:45;;;;;;;0.43;0.43;;;10.20;68.20;;;;;;5151770;27;20118;-72
2023/10/17 01:46:15;;;;;;;0.50;0.50;;;10.20;68.20;;;;;;5146894;27;20027;-71
2023/10/17 01:48:46;;;;;;;1.08;1.00;;;10.20;68.30;;;;;;5135400;27;20545;-72
2023/10/17 01:51:13;;;;;;;0.50;0.50;;;10.20;68.20;;;;;;5141835;27;20031;-72
2023/10/17 01:53:39;;;;;;;0.85;0.85;;;10.20;68.20;;;;;;5155552;27;20075;-72
2023/10/17 01:56:15;;;;;;;0.60;0.60;;;10.20;68.20;;;;;;5148415;27;20554;-71
2023/10/17 01:58:42;;;;;;;0.52;0.52;;;10.20;68.20;;;;;;5135054;27;20105;-71
2023/10/17 02:01:13;;;;;;;0.57;0.57;;;10.20;68.20;;;;;;5149805;27;20079;-71
2023/10/17 02:03:39;;;;;;;0.47;0.47;;;10.20;68.10;;;;;;5154460;27;20046;-72
2023/10/17 02:06:13;;;;;;;0.60;0.60;;;10.20;68.20;;;;;;5155492;27;20034;-72
2023/10/17 02:08:40;;;;;;;0.57;0.57;;;10.10;68.20;;;;;;5155970;27;20019;-71
2023/10/17 02:11:08;;;;;;;0.50;0.50;;;10.10;68.30;;;;;;5142647;27;20026;-72
2023/10/17 02:13:35;;;;;;;0.50;0.50;;;10.10;68.20;;;;;;5153863;27;20494;-72
2023/10/17 02:16:00;;;;;;;0.60;0.60;;;10.00;68.30;;;;;;5148092;27;20483;-72
2023/10/17 02:18:26;;;;;;;0.50;0.50;;;10.00;68.40;;;;;;5146713;27;20030;-71
2023/10/17 02:20:51;;;;;;;0.50;0.50;;;10.00;68.50;;;;;;5143909;27;20023;-71
2023/10/17 02:23:25;;;;;;;1.65;0.80;;;10.00;68.60;;;;;;5150736;27;20055;-72
2023/10/17 02:25:52;;;;;;;0.50;0.50;;;10.10;68.60;;;;;;5149771;27;20019;-71
2023/10/17 02:28:17;;;;;;;0.60;0.60;;;10.00;68.50;;;;;;5134245;27;20027;-72
2023/10/17 02:30:45;;;;;;;0.50;0.50;;;10.00;68.50;;;;;;5141853;27;20031;-72
2023/10/17 02:33:17;;;;;;;0.50;0.50;;;10.00;68.40;;;;;;5149794;27;20035;-71
2023/10/17 02:35:53;;;;;;;;;;;10.00;68.30;;;;;;5151923;27;20016;-72
2023/10/17 02:38:19;;;;;;;0.40;0.40;;;10.00;68.20;;;;;;5147202;27;20276;-72
2023/10/17 02:40:54;;;;;;;0.55;0.55;;;10.00;68.10;;;;;;5144298;27;20483;-71
2023/10/17 02:43:19;;;;;;;0.40;0.40;;;10.00;68.30;;;;;;5150348;27;20022;-71
2023/10/17 02:45:45;;;;;;;0.65;0.65;;;10.00;68.20;;;;;;5150725;27;20023;-72
2023/10/17 02:48:26;;;;;;;1.05;1.02;;;10.00;68.30;;;;;;5133043;27;20031;-72
2023/10/17 02:51:01;;;;;;;0.52;0.52;;;10.00;68.30;;;;;;5130030;27;20019;-72
2023/10/17 02:53:34;;;;;;;0.50;0.50;;;10.00;68.30;;;;;;5151505;27;20371;-72
2023/10/17 02:56:18;;;;;;;0.50;0.50;;;9.90;68.00;;;;;;5147176;27;20018;-72
2023/10/17 02:58:48;;;;;;;0.80;0.80;;;9.90;68.10;;;;;;5134299;27;20015;-72
2023/10/17 03:01:14;;;;;;;0.60;0.60;;;9.80;68.10;;;;;;5141488;27;20066;-72
2023/10/17 03:03:39;;;;;;;0.60;0.60;;;9.90;68.00;;;;;;5151934;27;20022;-73
2023/10/17 03:06:05;;;;;;;0.80;0.80;;;9.80;68.00;;;;;;5147442;27;20119;-72
2023/10/17 03:08:36;;;;;;;0.50;0.50;;;9.80;68.10;;;;;;5140133;27;20036;-72
2023/10/17 03:11:08;;;;;;;0.82;0.82;;;9.70;68.10;;;;;;5144170;27;20376;-72
2023/10/17 03:13:40;;;;;;;0.47;0.47;;;9.70;68.20;;;;;;5151596;27;20087;-72
2023/10/17 03:18:50;;;;;;;0.40;0.40;;;9.60;68.10;;;;;;5148319;27;20075;-72
2023/10/17 03:21:20;;;;;;;0.40;0.40;;;9.50;68.30;;;;;;5142647;27;20452;-69
2023/10/17 03:23:49;;;;;;;0.50;0.50;;;9.60;68.50;;;;;;5133349;27;20027;-69
2023/10/17 03:26:18;;;;;;;0.50;0.50;;;9.50;68.30;;;;;;5132807;27;20053;-69
2023/10/17 03:28:45;;;;;;;0.50;0.50;;;9.50;68.40;;;;;;5132872;27;20019;-68
2023/10/17 03:31:20;;;;;;;0.90;0.90;;;9.50;68.40;;;;;;5142046;27;20031;-68
2023/10/17 03:33:50;;;;;;;0.50;0.50;;;9.50;68.40;;;;;;5132941;27;20026;-69
2023/10/17 03:39:18;;;;;;;0.82;0.82;;;9.50;68.40;;;;;;5148720;27;20271;-69
2023/10/17 03:41:45;;;;;;;0.50;0.50;;;9.50;68.50;;;;;;5134739;27;20038;-68
2023/10/17 03:44:15;;;;;;;0.50;0.50;;;9.50;68.60;;;;;;5153490;27;20031;-68
2023/10/17 03:46:46;;;;;;;0.50;0.50;;;9.50;68.70;;;;;;5143177;27;20027;-68
2023/10/17 03:49:19;;;;;;;0.60;0.60;;;9.60;68.70;;;;;;5132615;27;20076;-68
2023/10/17 03:51:51;;;;;;;0.82;0.82;;;9.60;68.70;;;;;;5140855;27;20119;-68
2023/10/17 03:54:18;;;;;;;0.50;0.50;;;9.60;68.70;;;;;;5153251;27;20023;-68
2023/10/17 03:56:49;;;;;;;0.50;0.50;;;9.60;68.90;;;;;;5142476;27;20388;-69
2023/10/17 04:01:46;;;;;;;0.50;0.50;;;9.70;69.10;;;;;;5141786;27;20038;-68
2023/10/17 04:04:12;;;;;;;0.50;0.50;;;9.70;69.00;;;;;;5132372;27;20042;-68
2023/10/17 04:06:41;;;;;;;0.50;0.50;;;9.70;69.00;;;;;;5131929;27;20461;-68
2023/10/17 04:11:58;;;;;;;0.65;0.65;;;9.80;68.90;;;;;;5135104;27;20061;-68
2023/10/17 04:14:33;;;;;;;0.50;0.50;;;9.80;69.00;;;;;;5152206;27;20026;-68
2023/10/17 04:17:02;;;;;;;0.50;0.50;;;9.80;68.80;;;;;;5140217;27;20027;-69
2023/10/17 04:19:30;;;;;;;0.47;0.47;;;9.80;68.80;;;;;;5134352;27;20056;-69
2023/10/17 04:24:34;;;;;;;0.50;0.50;;;9.70;68.90;;;;;;5153133;27;20033;-68
2023/10/17 04:29:38;;;;;;;0.55;0.55;;;9.70;68.80;;;;;;5135844;27;20027;-69
2023/10/17 04:32:13;;;;;;;0.50;0.50;;;9.70;68.90;;;;;;5140141;27;20031;-68
2023/10/17 04:34:45;;;;;;;0.50;0.50;;;9.70;68.70;;;;;;5152729;27;20034;-68
2023/10/17 04:37:24;;;;;;;0.47;0.47;;;9.70;68.80;;;;;;5142702;27;20453;-68
2023/10/17 04:39:56;;;;;;;0.77;0.77;;;9.70;68.70;;;;;;5148840;27;20029;-68
2023/10/17 04:45:13;;;;;;;0.73;0.73;;;9.70;69.00;;;;;;5131990;28;20049;-68
2023/10/17 04:47:39;;;;;;;1.08;0.98;;;9.70;68.90;;;;;;5131736;28;20438;-68
2023/10/17 04:50:11;;;;;;;0.60;0.60;;;9.70;69.00;;;;;;5130735;27;20030;-68
2023/10/17 04:52:44;;;;;;;0.50;0.50;;;9.80;69.20;;;;;;5140698;27;20361;-68
2023/10/17 04:55:22;;;;;;;1.60;1.50;;;9.80;69.20;;;;;;5152706;27;20019;-68
2023/10/17 05:00:51;;;;;;;0.50;0.50;;;9.80;69.10;;;;;;5139867;27;20027;-68
2023/10/17 05:03:26;;;;;;;0.40;0.40;;;9.80;69.10;;;;;;5142685;27;20544;-70
2023/10/17 05:07:07;;;;;;;0.50;0.50;;;9.80;69.10;;;;;;5149604;27;20415;-70
2023/10/17 05:09:00;;;;;;;0.82;0.82;;;9.80;69.10;;;;;;5129951;27;20074;-70
2023/10/17 06:17:47;;;;;;;0.50;0.50;;;10.50;69.90;;;;;;5139899;27;20038;-72
2023/10/17 06:20:13;;;;;;;0.63;0.63;;;10.60;69.80;;;;;;5149177;27;20030;-72
2023/10/17 06:31:10;;;;;;;1.20;1.05;;;10.70;70.00;;;;;;5123215;27;20031;-72
2023/10/17 06:33:35;;;;;;;0.50;0.50;;;10.70;69.90;;;;;;5134306;27;20108;-72
2023/10/17 06:36:13;;;;;;;0.82;0.82;;;10.70;69.70;;;;;;5145070;27;20424;-72
2023/10/17 06:38:47;;;;;;;0.63;0.63;;;10.80;69.70;;;;;;5139707;27;20042;-72
2023/10/17 06:41:27;;;;;;;1.15;1.05;;;10.80;69.80;;;;;;5138351;27;20065;-72
2023/10/17 06:43:58;;;;;;;0.50;0.50;;;10.80;69.80;;;;;;5154510;27;20027;-72
2023/10/17 06:46:30;;;;;;;0.43;0.43;;;10.80;69.90;;;;;;5153642;27;20022;-73
2023/10/17 06:49:04;;;;;;;0.50;0.50;;;10.80;69.90;;;;;;5153015;27;20384;-72
2023/10/17 06:51:30;;;;;;;0.40;0.40;;;10.90;70.00;;;;;;5148417;27;20343;-69
2023/10/17 06:53:57;;;;;;;0.98;0.98;;;10.90;70.20;;;;;;5148348;27;20038;-70
2023/10/17 06:56:25;;;;;;;0.88;0.88;;;11.00;70.40;;;;;;5150963;27;20031;-69
2023/10/17 06:58:56;;;;;;;0.45;0.45;;;11.10;70.30;;;;;;5139460;27;20042;-70
2023/10/17 07:01:26;;;;;;;;;;;11.20;70.20;;;;;;5149301;27;20034;-70
2023/10/17 07:03:55;;;;;;;0.65;0.65;;;11.30;70.20;;;;;;5153247;27;19930;-70
2023/10/17 07:06:24;;;;;;;1.33;1.23;;;11.30;70.20;;;;;;5152712;27;20038;-70
2023/10/17 07:08:51;;;;;;;1.63;1.52;;;11.40;70.20;;;;;;5152355;27;20023;-72
2023/10/17 07:13:49;;;;;;;0.57;0.57;;;11.40;70.10;;;;;;5150899;27;20487;-70
2023/10/17 07:16:25;;;;;;;0.50;0.50;;;11.50;70.20;;;;;;5149060;27;20029;-70
2023/10/17 07:18:51;;;;;;;0.50;0.50;;;11.50;70.20;;;;;;5132785;27;20033;-71
2023/10/17 07:21:23;;;;;;;0.63;0.63;;;11.60;70.10;;;;;;5146915;27;20030;-70
2023/10/17 07:23:49;;;;;;;0.60;0.60;;;11.70;70.10;;;;;;5143793;27;20030;-70
2023/10/17 07:26:24;;;;;;;1.45;1.35;;;11.70;70.10;;;;;;5153294;27;20460;-71
2023/10/17 07:28:50;;;;;;;0.70;0.70;;;11.80;70.10;;;;;;5151594;27;20035;-71
2023/10/17 07:31:20;;;;;;;1.00;1.00;;;11.80;70.00;;;;;;5146014;27;20030;-70
2023/10/17 07:33:47;;;;;;;0.52;0.52;;;11.90;70.00;;;;;;5142967;27;20015;-71
2023/10/17 07:36:15;;;;;;;1.38;1.27;;;12.00;70.10;;;;;;5151702;27;20047;-70
2023/10/17 07:38:43;;;;;;;0.63;0.63;;;12.10;70.30;;;;;;5136522;27;20492;-70
2023/10/17 07:41:32;;;;;;;1.55;1.20;;;12.20;70.50;;;;;;5146624;27;20063;-70
2023/10/17 07:44:05;;;;;;;1.45;0.80;;;12.40;70.70;;;;;;5143827;27;20027;-71
2023/10/17 07:46:34;;;;;;;0.55;0.55;;;12.70;71.00;;;;;;5152287;27;20026;-70
2023/10/17 07:49:05;;;;;;;0.60;0.60;;;13.10;72.10;;;;;;5150853;27;20391;-72
2023/10/17 07:51:32;;;;;;;0.65;0.65;;;13.60;72.60;;;;;;5149545;27;20030;-70
2023/10/17 07:53:58;;;;;;;1.80;1.67;;;14.00;72.20;;;;;;5151679;27;20475;-71
2023/10/17 07:56:26;;;;;;;1.38;1.27;;;14.40;72.20;;;;;;5151530;27;20034;-71
2023/10/17 07:59:15;;;;;;;1.45;1.35;;;14.70;71.70;;;;;;5132224;27;20483;-71
2023/10/17 08:01:49;;;;;;;1.50;1.08;;;15.00;71.20;;;;;;5146803;27;20372;-71
2023/10/17 08:04:18;;;;;;;0.77;0.77;;;15.20;70.40;;;;;;5130793;27;20500;-71
2023/10/17 08:06:45;;;;;;;1.63;1.52;;;15.30;69.50;;;;;;5145761;27;20463;-71
2023/10/17 08:11:51;;;;;;;0.57;0.52;;;15.10;68.90;;;;;;5149639;27;20023;-71
2023/10/17 08:14:18;;;;;;;1.27;1.20;;;15.00;68.70;;;;;;5152456;27;20456;-71
2023/10/17 08:16:44;;;;;;;0.90;0.90;;;14.80;68.70;;;;;;5145258;27;20387;-71
2023/10/17 08:19:12;;;;;;;1.23;1.15;;;14.70;68.70;;;;;;5131473;27;20510;-71
2023/10/17 08:24:29;;;;;;;0.93;0.93;;;14.60;69.10;;;;;;5133814;27;20169;-71
2023/10/17 08:27:13;;;;;;;0.90;0.90;;;14.50;68.70;;;;;;5132146;27;20353;-71
2023/10/17 08:29:42;;;;;;;0.52;0.52;;;14.50;68.80;;;;;;5133453;27;20483;-71
2023/10/17 08:34:56;;;;;;;0.98;0.98;;;14.40;69.10;;;;;;5152505;27;20030;-71
2023/10/17 08:37:39;;;;;;;0.52;0.52;;;14.40;69.20;;;;;;5136080;27;20118;-71
2023/10/17 08:42:51;;;;;;;0.55;0.55;;;14.60;69.80;;;;;;5137497;27;20037;-70
2023/10/17 08:45:18;;;;;;;0.73;0.73;;;14.70;69.50;;;;;;5152660;27;20023;-71
2023/10/17 08:47:44;;;;;;;0.60;0.60;;;14.80;70.40;;;;;;5149388;27;20031;-73
2023/10/17 08:50:10;;;;;;;0.90;0.90;;;15.00;70.50;;;;;;5151587;27;20132;-69
2023/10/17 08:52:37;;;;;;;0.80;0.63;;;15.10;69.70;;;;;;5149920;27;20356;-70
2023/10/17 08:55:04;;;;;;;0.75;0.75;;;15.20;69.60;;;;;;5149746;27;20170;-70
2023/10/17 08:57:30;;;;;;;1.05;1.00;;;15.20;69.50;;;;;;5146841;27;20539;-69
2023/10/17 09:04:53;;;;;;;0.50;0.50;;;15.60;69.80;;;;;;5153023;27;20023;-70
2023/10/17 09:07:32;;;;;;;0.50;0.50;;;15.70;69.80;;;;;;5154760;27;20042;-70
2023/10/17 09:10:39;;;;;;;0.70;0.70;;;15.80;69.60;;;;;;5144038;27;20165;-68
2023/10/17 09:15:55;;;;;;;1.70;1.45;;;15.90;69.80;;;;;;5149354;27;20030;-69
2023/10/17 09:18:39;;;;;;;0.52;0.52;;;15.90;69.40;;;;;;5146947;27;20087;-71
2023/10/17 09:21:06;;;;;;;0.77;0.77;;;15.90;68.60;;;;;;5148077;27;20030;-70
2023/10/17 09:23:31;;;;;;;0.93;0.93;;;15.90;68.50;;;;;;5153992;27;20523;-70
2023/10/17 09:26:07;;;;;;;0.85;0.85;;;15.90;68.80;;;;;;5155809;27;20093;-69
2023/10/17 09:28:33;;;;;;;1.15;1.05;;;16.00;69.10;;;;;;5154625;27;20471;-70
2023/10/17 09:31:06;;;;;;;0.82;0.82;;;16.00;69.20;;;;;;5135621;27;20031;-70
2023/10/17 09:33:34;;;;;;;0.70;0.70;;;16.10;69.10;;;;;;5155187;27;20035;-70
2023/10/17 09:36:04;;;;;;;0.50;0.50;;;16.10;68.60;;;;;;5143061;27;20117;-70
2023/10/17 09:38:43;;;;;;;0.63;0.63;;;16.10;68.50;;;;;;5155518;27;20023;-70
2023/10/17 09:41:11;;;;;;;0.63;0.63;;;16.10;68.50;;;;;;5148415;27;20027;-71
2023/10/17 09:43:37;;;;;;;0.80;0.80;;;16.10;68.40;;;;;;5135090;27;20023;-70
2023/10/17 09:46:07;;;;;;;0.70;0.70;;;16.10;67.70;;;;;;5144007;27;20384;-70
2023/10/17 09:48:36;;;;;;;0.43;0.43;;;16.00;68.60;;;;;;5154700;27;20539;-69
2023/10/17 09:51:03;;;;;;;0.60;0.60;;;16.20;68.60;;;;;;5147743;27;20028;-70
2023/10/17 09:53:33;;;;;;;0.77;0.77;;;16.20;68.80;;;;;;5155130;27;20034;-70
2023/10/17 09:56:06;;;;;;;1.15;1.05;;;16.30;68.70;;;;;;5137917;27;20026;-70
2023/10/17 09:58:36;;;;;;;0.60;0.60;;;16.40;68.60;;;;;;5154543;27;20126;-70
2023/10/17 10:01:10;;;;;;;0.45;0.45;;;16.40;67.70;;;;;;5149251;27;20046;-70
2023/10/17 10:03:37;;;;;;;0.65;0.65;;;16.40;67.30;;;;;;5153531;27;20159;-70
2023/10/17 10:06:22;;;;;;;0.40;0.40;;;16.50;68.60;;;;;;5134479;27;20053;-70
2023/10/17 10:08:48;;;;;;;0.60;0.60;;;16.80;68.20;;;;;;5141269;27;20030;-71
2023/10/17 10:11:15;;;;;;;1.55;1.45;;;16.90;67.50;;;;;;5150216;27;20481;-70
2023/10/17 10:14:04;;;;;;;0.77;0.77;;;16.90;66.60;;;;;;5152345;27;20240;-69
2023/10/17 10:16:46;;;;;;;1.10;0.93;;;16.90;67.50;;;;;;5134922;27;20433;-69
2023/10/17 10:19:14;;;;;;;0.95;0.85;;;16.90;67.70;;;;;;5133942;27;20059;-69
2023/10/17 10:21:55;;;;;;;0.80;0.80;;;17.00;67.30;;;;;;5154127;27;20095;-70
2023/10/17 10:24:26;;;;;;;0.47;0.47;;;17.20;68.00;;;;;;5146512;27;20025;-70
2023/10/17 10:27:10;;;;;;;0.60;0.60;;;17.20;66.30;;;;;;5141218;27;20422;-70
2023/10/17 10:29:36;;;;;;;0.70;0.70;;;17.20;64.80;;;;;;5148278;27;20069;-71
2023/10/17 10:32:05;;;;;;;1.02;1.02;;;17.10;65.90;;;;;;5154411;27;20471;-71
2023/10/17 10:34:35;;;;;;;0.70;0.70;;;17.10;65.40;;;;;;5144279;27;20510;-70
2023/10/17 10:37:03;;;;;;;1.20;1.10;;;17.20;66.50;;;;;;5134520;27;20030;-72
2023/10/17 10:39:30;;;;;;;0.68;0.68;;;17.30;65.90;;;;;;5148159;27;20042;-72
2023/10/17 10:42:06;;;;;;;0.43;0.43;;;17.30;63.40;;;;;;5153401;27;20476;-71
2023/10/17 10:44:41;;;;;;;0.63;0.63;;;17.30;62.90;;;;;;5145103;27;20023;-70
2023/10/17 10:47:07;;;;;;;0.70;0.70;;;17.10;64.00;;;;;;5132391;27;20084;-70
2023/10/17 10:49:33;;;;;;;0.80;0.80;;;17.00;64.40;;;;;;5133770;27;20027;-71
2023/10/17 10:51:58;;;;;;;1.80;1.65;;;17.00;63.60;;;;;;5148572;27;20101;-70
2023/10/17 10:54:49;;;;;;;0.77;0.77;;;17.00;62.70;;;;;;5144752;27;20114;-71
2023/10/17 10:57:15;;;;;;;0.50;0.50;;;17.10;64.40;;;;;;5125489;27;20259;-71
2023/10/17 10:59:51;;;;;;;0.80;0.80;;;17.20;65.40;;;;;;5142542;27;20034;-70
2023/10/17 11:02:17;;;;;;;3.40;0.70;;;17.30;64.00;;;;;;5151642;27;20113;-71
2023/10/17 11:04:43;;;;;;;0.73;0.60;;;17.20;61.80;;;;;;5147627;27;20106;-71
2023/10/17 11:07:22;;;;;;;0.68;0.68;;;17.20;63.10;;;;;;5155191;27;20019;-70
2023/10/17 11:10:07;;;;;;;0.57;0.57;;;17.30;64.30;;;;;;5147854;27;20023;-71
2023/10/17 11:12:34;;;;;;;0.80;0.80;;;17.50;64.20;;;;;;5152163;27;20030;-70
2023/10/17 11:15:10;;;;;;;2.80;1.00;;;17.50;64.20;;;;;;5140424;27;20027;-70
2023/10/17 11:17:43;;;;;;;0.70;0.70;;;17.70;64.40;;;;;;5142534;27;20498;-70
2023/10/17 11:20:19;;;;;;;0.50;0.50;;;17.80;63.10;;;;;;5130398;27;20114;-71
2023/10/17 11:22:46;;;;;;;0.47;0.47;;;17.70;61.60;;;;;;5149255;27;20079;-70
2023/10/17 11:25:26;;;;;;;0.50;0.50;;;17.70;60.10;;;;;;5139620;27;20072;-71
2023/10/17 11:28:02;;;;;;;0.50;0.50;;;17.60;60.40;;;;;;5134620;27;20034;-70
2023/10/17 11:30:50;;;;;;;0.57;0.57;;;17.60;59.60;;;;;;5142528;27;20069;-69
2023/10/17 11:33:18;;;;;;;1.38;1.27;;;17.60;59.60;;;;;;5152113;27;20125;-69
2023/10/17 11:35:51;;;;;;;0.60;0.60;;;17.70;60.60;;;;;;5150107;27;20053;-69
2023/10/17 11:38:37;;;;;;;0.63;0.63;;;17.80;60.80;;;;;;5152356;27;20039;-69
2023/10/17 11:41:04;;;;;;;0.40;0.40;;;17.90;60.20;;;;;;5146875;27;20030;-69
2023/10/17 11:43:34;;;;;;;0.50;0.50;;;17.90;59.50;;;;;;5153119;27;20038;-70
2023/10/17 11:46:04;;;;;;;0.45;0.45;;;18.00;60.30;;;;;;5133121;27;20034;-69
2023/10/17 11:48:40;;;;;;;0.63;0.63;;;18.10;60.20;;;;;;5068518;27;20395;-68
2023/10/17 11:51:13;;;;;;;0.50;0.50;;;18.20;59.60;;;;;;5067732;28;20495;-68
2023/10/17 11:54:07;;;;;;;0.50;0.50;;;18.20;57.80;;;;;;5067606;28;20055;-68
2023/10/17 11:56:39;;;;;;;0.50;0.50;;;18.20;57.90;;;;;;5049671;28;20844;-69
2023/10/17 11:59:10;;;;;;;0.70;0.70;;;18.20;57.50;;;;;;5050240;28;20027;-69
2023/10/17 12:01:36;;;;;;;0.65;0.65;;;18.30;58.50;;;;;;5050561;28;20492;-68
2023/10/17 12:04:06;;;;;;;0.70;0.70;;;18.40;57.40;;;;;;5067537;28;20036;-68
2023/10/17 12:06:35;;;;;;;0.65;0.65;;;18.60;57.20;;;;;;5066853;28;20036;-68
2023/10/17 12:09:17;;;;;;;1.05;1.05;;;18.80;56.50;;;;;;5065355;28;20029;-70
2023/10/17 12:11:46;;;;;;;0.60;0.60;;;19.00;57.10;;;;;;5052669;28;20029;-70
2023/10/17 12:14:19;;;;;;;0.60;0.60;;;19.20;54.10;;;;;;5065824;28;20031;-70
2023/10/17 12:16:53;;;;;;;0.50;0.50;;;19.40;52.70;;;;;;5068039;28;20033;-69
2023/10/17 12:19:23;;;;;;;0.43;0.43;;;19.30;51.60;;;;;;5051518;28;20039;-70
2023/10/17 12:21:48;;;;;;;0.70;0.70;;;19.30;51.30;;;;;;5065860;28;20028;-70
2023/10/17 12:24:24;;;;;;;0.55;0.55;;;19.20;51.00;;;;;;5063175;28;20403;-69
2023/10/17 12:26:50;;;;;;;1.35;1.25;;;19.00;51.70;;;;;;5066429;28;20037;-70
2023/10/17 12:29:17;;;;;;;0.40;0.40;;;18.90;51.30;;;;;;5062510;28;20025;-69
2023/10/17 12:31:43;;;;;;;0.45;0.45;;;18.80;51.10;;;;;;5065604;28;20434;-69
2023/10/17 12:34:09;;;;;;;0.50;0.50;;;18.80;50.70;;;;;;5066459;28;20025;-70
2023/10/17 12:36:37;;;;;;;0.40;0.40;;;18.80;51.10;;;;;;5066310;28;20036;-69
2023/10/17 12:39:06;;;;;;;0.50;0.50;;;18.70;50.70;;;;;;5050734;28;20029;-70
2023/10/17 12:41:33;;;;;;;0.93;0.93;;;18.50;50.00;;;;;;5066080;28;20039;-70
2023/10/17 12:43:59;;;;;;;0.45;0.45;;;18.30;49.30;;;;;;5065378;28;20025;-71
2023/10/17 12:46:25;;;;;;;0.82;0.80;;;18.10;49.30;;;;;;5066449;28;20032;-70
2023/10/17 12:48:51;;;;;;;0.68;0.68;;;17.90;49.90;;;;;;5066031;28;20025;-70
2023/10/17 12:51:16;;;;;;;0.40;0.40;;;17.80;49.60;;;;;;5061172;28;20230;-70
2023/10/17 12:53:42;;;;;;;0.50;0.50;;;17.80;49.50;;;;;;5066863;28;20085;-70
2023/10/17 12:56:11;;;;;;;0.60;0.60;;;17.80;49.50;;;;;;5065321;28;20041;-70
2023/10/17 12:58:37;;;;;;;0.40;0.40;;;17.70;49.30;;;;;;5043060;28;20079;-70
2023/10/17 13:01:11;;;;;;;0.50;0.50;;;17.60;50.30;;;;;;5047592;28;20443;-70
2023/10/17 13:03:38;;;;;;;0.60;0.60;;;17.50;50.00;;;;;;5047711;28;20025;-71
2023/10/17 13:06:08;;;;;;;0.95;0.95;;;17.30;49.90;;;;;;5052752;28;20036;-71
2023/10/17 13:08:34;;;;;;;0.50;0.50;;;17.20;50.00;;;;;;5053691;28;20032;-71
2023/10/17 13:11:02;;;;;;;0.77;0.77;;;17.10;50.50;;;;;;5045847;28;20029;-71
2023/10/17 13:13:29;;;;;;;0.55;0.55;;;16.90;50.30;;;;;;5049678;28;20033;-71
2023/10/17 13:15:57;;;;;;;0.40;0.40;;;16.80;50.60;;;;;;5036701;28;20104;-70
2023/10/17 13:18:23;;;;;;;0.45;0.45;;;16.70;51.00;;;;;;5034173;28;20038;-70
2023/10/17 13:20:57;;;;;;;0.40;0.40;;;16.60;51.00;;;;;;5038190;28;20362;-70
2023/10/17 13:23:23;;;;;;;0.50;0.50;;;16.50;50.90;;;;;;5052629;28;20044;-70
2023/10/17 13:25:49;;;;;;;0.60;0.60;;;16.50;51.70;;;;;;5045119;28;20025;-70
2023/10/17 13:28:17;;;;;;;0.80;0.80;;;16.50;51.00;;;;;;5033843;28;20045;-70
2023/10/17 13:30:43;;;;;;;0.93;0.93;;;16.40;51.30;;;;;;5046849;28;20021;-71
2023/10/17 13:33:08;;;;;;;0.68;0.68;;;16.40;50.80;;;;;;5042731;28;20039;-72
2023/10/17 13:35:37;;;;;;;0.73;0.63;;;16.30;50.20;;;;;;5049284;28;20504;-71
2023/10/17 13:38:03;;;;;;;0.40;0.40;;;16.20;50.10;;;;;;5044067;28;20489;-72
2023/10/17 13:40:32;;;;;;;0.55;0.55;;;16.10;50.90;;;;;;5043656;28;20040;-69
2023/10/17 13:42:58;;;;;;;0.50;0.50;;;16.00;50.90;;;;;;5048403;28;20425;-70
2023/10/17 13:45:27;;;;;;;0.52;0.52;;;16.00;51.30;;;;;;5051259;28;20377;-71
2023/10/17 13:47:53;;;;;;;0.47;0.47;;;15.90;51.10;;;;;;5049510;28;20041;-69
2023/10/17 13:50:21;;;;;;;0.52;0.52;;;15.90;51.60;;;;;;5043256;28;20021;-68
2023/10/17 13:52:48;;;;;;;0.50;0.50;;;15.90;51.80;;;;;;5049606;28;20034;-69
2023/10/17 13:55:26;;;;;;;0.55;0.55;;;15.90;51.80;;;;;;5044885;28;20032;-69
2023/10/17 13:57:55;;;;;;;0.50;0.50;;;15.80;51.80;;;;;;5053061;28;20044;-69
2023/10/17 14:00:22;;;;;;;0.50;0.50;;;15.80;51.90;;;;;;5045543;28;20552;-69
2023/10/17 14:02:51;;;;;;;0.50;0.50;;;15.80;51.90;;;;;;5052795;28;20029;-69
2023/10/17 14:05:18;;;;;;;0.40;0.40;;;15.80;52.20;;;;;;5041663;28;20029;-68
2023/10/17 14:07:48;;;;;;;0.73;0.73;;;15.80;52.10;;;;;;5035233;28;20495;-68
2023/10/17 14:10:14;;;;;;;0.75;0.75;;;15.80;51.80;;;;;;5047758;28;20358;-69
2023/10/17 14:12:41;;;;;;;0.50;0.50;;;15.80;51.40;;;;;;5050794;28;20029;-68
2023/10/17 14:15:08;;;;;;;0.40;0.40;;;15.70;51.20;;;;;;5051975;28;20021;-68
2023/10/17 14:17:33;;;;;;;0.40;0.40;;;15.60;51.60;;;;;;5039123;28;20457;-68
2023/10/17 14:20:05;;;;;;;0.50;0.50;;;15.60;51.70;;;;;;5041476;28;20025;-68
2023/10/17 14:22:38;;;;;;;0.40;0.40;;;15.60;52.00;;;;;;5046236;28;20487;-68
2023/10/17 14:25:06;;;;;;;0.73;0.73;;;15.60;51.90;;;;;;5045605;28;20082;-69
2023/10/17 14:27:32;;;;;;;0.50;0.50;;;15.60;52.00;;;;;;5049785;28;20082;-68
2023/10/17 14:30:05;;;;;;;0.50;0.50;;;15.60;51.90;;;;;;5048108;28;20029;-68
2023/10/17 14:32:31;;;;;;;0.45;0.45;;;15.70;52.20;;;;;;5048559;28;20029;-68
2023/10/17 14:34:57;;;;;;;0.40;0.40;;;15.70;52.20;;;;;;5050131;28;20427;-69
2023/10/17 14:37:24;;;;;;;0.50;0.50;;;15.80;52.00;;;;;;5047354;28;20085;-68
2023/10/17 14:39:52;;;;;;;0.40;0.40;;;15.80;52.20;;;;;;5039668;28;20033;-69
2023/10/17 14:42:18;;;;;;;0.47;0.47;;;15.70;52.40;;;;;;5050428;28;20029;-69
2023/10/17 14:44:49;;;;;;;0.75;0.75;;;15.70;52.70;;;;;;5049634;28;20472;-69
2023/10/17 14:47:16;;;;;;;1.55;0.85;;;15.70;53.00;;;;;;5051822;28;20036;-70
2023/10/17 14:49:43;;;;;;;0.40;0.40;;;15.70;52.90;;;;;;5045441;28;20021;-69
2023/10/17 14:52:08;;;;;;;0.70;0.70;;;15.70;52.90;;;;;;5050083;28;21297;-69
2023/10/17 14:54:34;;;;;;;11.80;1.45;;;15.70;53.20;;;;;;5040256;28;20032;-69
2023/10/17 14:57:06;;;;;;;0.60;0.60;;;15.60;53.50;;;;;;5051872;28;20043;-69
2023/10/17 14:59:35;;;;;;;0.50;0.50;;;15.70;53.60;;;;;;5046587;28;20021;-69
2023/10/17 15:02:05;;;;;;;0.40;0.40;;;15.70;53.30;;;;;;5050693;28;20475;-69
2023/10/17 15:04:31;;;;;;;0.70;0.70;;;15.70;53.30;;;;;;5050982;28;20024;-70